createdAt,value
2019-04-16T00:01:06.278Z,15.83
2019-04-16T00:03:38.744Z,15.13
2019-04-16T00:06:14.750Z,14.10
2019-04-16T00:08:50.532Z,13.67
2019-04-16T00:11:29.551Z,13.07
2019-04-16T00:14:08.138Z,12.23
2019-04-16T00:16:37.162Z,12.17
2019-04-16T00:19:06.622Z,15.00
2019-04-16T00:22:11.540Z,14.40
2019-04-16T00:24:40.163Z,14.10
2019-04-16T00:27:09.227Z,14.70
2019-04-16T00:29:41.237Z,14.23
2019-04-16T00:32:21.997Z,15.80
2019-04-16T00:34:50.915Z,14.80
2019-04-16T00:37:21.349Z,15.47
2019-04-16T00:39:55.379Z,13.07
2019-04-16T00:42:21.391Z,13.40
2019-04-16T00:44:50.425Z,13.37
2019-04-16T00:47:19.544Z,12.57
2019-04-16T00:49:48.520Z,11.77
2019-04-16T00:52:17.507Z,12.23
2019-04-16T00:54:46.608Z,13.43
2019-04-16T00:57:18.028Z,12.50
2019-04-16T00:59:46.245Z,13.27
2019-04-16T01:02:15.273Z,12.27
2019-04-16T01:04:44.285Z,11.20
2019-04-16T01:07:13.276Z,11.23
2019-04-16T01:09:45.549Z,11.43
2019-04-16T01:12:14.511Z,13.97
2019-04-16T01:14:43.563Z,13.90
2019-04-16T01:17:15.768Z,15.07
2019-04-16T01:19:46.313Z,13.87
2019-04-16T01:22:16.014Z,12.67
2019-04-16T01:24:45.925Z,13.43
2019-04-16T01:27:15.525Z,13.27
2019-04-16T01:29:44.524Z,12.03
2019-04-16T01:32:35.474Z,11.43
2019-04-16T01:35:23.748Z,11.27
2019-04-16T01:38:10.603Z,10.23
2019-04-16T01:40:59.319Z,11.37
2019-04-16T01:43:28.332Z,11.23
2019-04-16T01:46:02.061Z,11.40
2019-04-16T01:48:31.349Z,12.17
2019-04-16T01:51:00.530Z,12.53
2019-04-16T01:53:29.510Z,12.83
2019-04-16T01:55:58.837Z,12.17
2019-04-16T01:58:27.800Z,11.73
2019-04-16T02:00:57.000Z,10.93
2019-04-16T02:03:28.543Z,13.33
2019-04-16T02:05:57.712Z,17.87
2019-04-16T02:08:31.121Z,11.97
2019-04-16T02:11:00.302Z,14.40
2019-04-16T02:13:29.473Z,14.07
2019-04-16T02:15:58.564Z,12.93
2019-04-16T02:18:30.801Z,13.07
2019-04-16T02:20:59.959Z,12.00
2019-04-16T02:23:28.923Z,13.27
2019-04-16T02:25:57.964Z,12.23
2019-04-16T02:28:28.353Z,14.67
2019-04-16T02:30:59.916Z,13.20
2019-04-16T02:33:28.974Z,13.13
2019-04-16T02:35:58.067Z,14.40
2019-04-16T02:38:27.041Z,15.70
2019-04-16T02:40:56.009Z,13.63
2019-04-16T02:43:24.952Z,14.23
2019-04-16T02:45:58.422Z,14.90
2019-04-16T02:48:24.527Z,13.50
2019-04-16T02:50:57.555Z,13.93
2019-04-16T02:53:58.445Z,13.27
2019-04-16T02:56:43.348Z,16.23
2019-04-16T02:59:19.478Z,14.90
2019-04-16T03:02:05.108Z,14.03
2019-04-16T03:04:41.482Z,16.00
2019-04-16T03:07:10.585Z,15.00
2019-04-16T03:09:40.832Z,15.27
2019-04-16T03:12:13.081Z,14.90
2019-04-16T03:14:44.492Z,13.83
2019-04-16T03:17:36.150Z,14.57
2019-04-16T03:20:05.955Z,18.30
2019-04-16T03:22:34.907Z,14.53
2019-04-16T03:25:04.212Z,16.33
2019-04-16T03:27:33.199Z,15.23
2019-04-16T03:30:06.267Z,16.53
2019-04-16T03:32:47.993Z,16.27
2019-04-16T03:35:17.110Z,17.20
2019-04-16T03:37:46.134Z,16.13
2019-04-16T03:40:18.494Z,15.27
2019-04-16T03:42:45.789Z,14.40
2019-04-16T03:45:14.770Z,15.17
2019-04-16T03:47:50.983Z,14.70
2019-04-16T03:50:17.413Z,17.20
2019-04-16T03:52:46.374Z,14.90
2019-04-16T03:55:15.372Z,16.77
2019-04-16T03:57:44.357Z,15.37
2019-04-16T04:00:14.542Z,16.03
2019-04-16T04:02:43.666Z,16.90
2019-04-16T04:05:15.954Z,17.03
2019-04-16T04:07:45.108Z,17.33
2019-04-16T04:10:23.333Z,17.47
2019-04-16T04:12:45.668Z,16.90
2019-04-16T04:15:15.722Z,15.93
2019-04-16T04:17:46.765Z,19.10
2019-04-16T04:20:18.106Z,18.07
2019-04-16T04:22:46.316Z,17.63
2019-04-16T04:25:15.353Z,18.33
2019-04-16T04:27:46.800Z,18.10
2019-04-16T04:30:15.767Z,17.53
2019-04-16T04:32:47.360Z,17.33
2019-04-16T04:35:21.759Z,19.07
2019-04-16T04:37:48.876Z,17.67
2019-04-16T04:40:18.120Z,19.53
2019-04-16T04:42:49.633Z,19.03
2019-04-16T04:45:18.670Z,19.53
2019-04-16T04:47:51.007Z,18.70
2019-04-16T04:50:18.516Z,17.80
2019-04-16T04:52:47.501Z,18.97
2019-04-16T04:55:16.582Z,21.17
2019-04-16T04:57:45.858Z,20.33
2019-04-16T05:00:14.981Z,20.07
2019-04-16T05:02:44.422Z,19.23
2019-04-16T05:05:36.932Z,18.37
2019-04-16T05:08:05.923Z,20.33
2019-04-16T05:10:36.797Z,20.77
2019-04-16T05:13:09.169Z,20.40
2019-04-16T05:15:38.363Z,22.17
2019-04-16T05:18:09.730Z,23.10
2019-04-16T05:20:38.700Z,25.20
2019-04-16T05:23:10.240Z,25.47
2019-04-16T05:25:40.944Z,22.63
2019-04-16T05:28:27.547Z,21.80
2019-04-16T05:30:56.703Z,21.37
2019-04-16T05:33:27.529Z,22.70
2019-04-16T05:35:59.329Z,22.67
2019-04-16T05:38:27.219Z,23.53
2019-04-16T05:40:56.245Z,23.53
2019-04-16T05:43:30.034Z,22.27
2019-04-16T05:45:55.909Z,22.93
2019-04-16T05:48:25.157Z,22.37
2019-04-16T05:50:54.184Z,21.20
2019-04-16T05:53:26.168Z,20.83
2019-04-16T05:56:03.574Z,23.33
2019-04-16T05:58:33.373Z,22.57
2019-04-16T06:01:20.618Z,21.10
2019-04-16T06:03:52.985Z,22.33
2019-04-16T06:06:20.491Z,21.60
2019-04-16T06:08:51.180Z,21.97
2019-04-16T06:11:28.687Z,23.20
2019-04-16T06:14:06.251Z,23.50
2019-04-16T06:17:00.351Z,20.57
2019-04-16T06:20:00.525Z,20.97
2019-04-16T06:22:54.396Z,21.27
2019-04-16T06:25:46.137Z,20.57
2019-04-16T06:28:45.881Z,20.87
2019-04-16T06:31:32.438Z,19.30
2019-04-16T06:34:13.398Z,20.80
2019-04-16T06:36:48.959Z,21.23
2019-04-16T06:39:33.814Z,19.27
2019-04-16T06:42:22.519Z,17.43
2019-04-16T06:44:53.277Z,18.03
2019-04-16T06:47:47.068Z,17.77
2019-04-16T06:50:47.552Z,18.40
2019-04-16T06:53:23.806Z,16.80
2019-04-16T06:56:20.047Z,16.13
2019-04-16T06:59:06.580Z,14.97
2019-04-16T07:01:52.824Z,15.23
2019-04-16T07:04:58.321Z,14.70
2019-04-16T07:07:57.552Z,16.27
2019-04-16T07:10:43.799Z,16.27
2019-04-16T07:13:01.035Z,15.90
2019-04-16T07:15:30.029Z,17.23
2019-04-16T07:17:59.103Z,17.60
2019-04-16T07:20:28.210Z,15.80
2019-04-16T07:22:57.228Z,15.83
2019-04-16T07:25:27.842Z,15.40
2019-04-16T07:28:02.754Z,13.83
2019-04-16T07:30:49.432Z,14.30
2019-04-16T07:33:48.093Z,16.67
2019-04-16T07:36:38.705Z,20.63
2019-04-16T07:39:31.455Z,15.80
2019-04-16T07:42:10.730Z,18.73
2019-04-16T07:44:55.467Z,20.50
2019-04-16T07:47:40.221Z,20.07
2019-04-16T07:50:29.561Z,15.13
2019-04-16T07:53:18.972Z,15.00
2019-04-16T07:55:51.924Z,15.37
2019-04-16T07:58:20.918Z,15.10
2019-04-16T08:00:54.521Z,13.80
2019-04-16T08:03:28.486Z,11.10
2019-04-16T08:05:57.862Z,11.43
2019-04-16T08:08:27.853Z,9.77
2019-04-16T08:11:00.055Z,10.03
2019-04-16T08:13:33.667Z,10.60
2019-04-16T08:16:01.920Z,9.00
2019-04-16T08:18:33.798Z,9.10
2019-04-16T08:21:10.331Z,8.10
2019-04-16T08:23:40.738Z,6.67
2019-04-16T08:26:13.024Z,7.73
2019-04-16T08:28:43.684Z,7.80
2019-04-16T08:31:33.223Z,7.80
2019-04-16T08:34:02.456Z,9.00
2019-04-16T08:36:31.459Z,7.80
2019-04-16T08:39:00.491Z,7.87
2019-04-16T08:41:29.495Z,7.23
2019-04-16T08:43:59.795Z,7.40
2019-04-16T08:46:29.134Z,6.93
2019-04-16T08:48:58.133Z,6.63
2019-04-16T08:51:30.955Z,11.47
2019-04-16T08:54:00.374Z,7.20
2019-04-16T08:56:30.431Z,7.90
2019-04-16T08:59:01.286Z,7.33
2019-04-16T09:01:31.460Z,6.60
2019-04-16T09:04:02.431Z,5.93
2019-04-16T09:06:31.077Z,6.67
2019-04-16T09:09:24.325Z,6.50
2019-04-16T09:12:07.989Z,6.70
2019-04-16T09:14:38.000Z,7.20
2019-04-16T09:17:31.999Z,5.67
2019-04-16T09:20:23.340Z,6.80
2019-04-16T09:22:58.348Z,5.77
2019-04-16T09:25:38.337Z,6.27
2019-04-16T09:28:24.496Z,6.10
2019-04-16T09:31:00.239Z,5.90
2019-04-16T09:33:57.222Z,6.43
2019-04-16T09:36:51.142Z,6.77
2019-04-16T09:39:44.919Z,7.07
2019-04-16T09:42:13.995Z,7.57
2019-04-16T09:44:42.935Z,5.83
2019-04-16T09:47:12.051Z,7.10
2019-04-16T09:49:41.078Z,6.30
2019-04-16T09:52:10.217Z,6.90
2019-04-16T09:54:41.555Z,6.70
2019-04-16T09:57:09.834Z,6.30
2019-04-16T09:59:44.695Z,6.40
2019-04-16T10:02:19.832Z,6.57
2019-04-16T10:04:48.779Z,6.87
2019-04-16T10:07:17.841Z,5.67
2019-04-16T10:09:46.925Z,6.50
2019-04-16T10:12:15.883Z,5.90
2019-04-16T10:14:44.949Z,6.80
2019-04-16T10:17:14.311Z,6.07
2019-04-16T10:19:43.998Z,6.03
2019-04-16T10:22:13.136Z,6.20
2019-04-16T10:25:16.654Z,6.40
2019-04-16T10:27:48.620Z,5.93
2019-04-16T10:30:23.667Z,6.73
2019-04-16T10:32:52.669Z,6.50
2019-04-16T10:35:21.963Z,6.70
2019-04-16T10:37:50.955Z,6.00
2019-04-16T10:40:44.745Z,5.70
2019-04-16T10:43:44.726Z,5.70
2019-04-16T10:46:40.145Z,5.70
2019-04-16T10:49:28.238Z,6.27
2019-04-16T10:52:24.444Z,5.70
2019-04-16T10:54:58.330Z,6.23
2019-04-16T10:57:44.692Z,6.00
2019-04-16T11:00:33.066Z,5.83
2019-04-16T11:03:06.078Z,6.43
2019-04-16T11:05:42.631Z,5.80
2019-04-16T11:08:15.338Z,6.43
2019-04-16T11:10:44.385Z,7.13
2019-04-16T11:13:18.400Z,6.47
2019-04-16T11:15:47.510Z,7.47
2019-04-16T11:18:16.848Z,6.70
2019-04-16T11:20:45.907Z,6.27
2019-04-16T11:23:14.928Z,5.83
2019-04-16T11:25:44.012Z,6.23
2019-04-16T11:28:14.874Z,6.30
2019-04-16T11:30:49.164Z,6.57
2019-04-16T11:33:18.275Z,6.47
2019-04-16T11:35:53.064Z,6.43
2019-04-16T11:38:21.111Z,6.83
2019-04-16T11:40:50.167Z,6.60
2019-04-16T11:43:19.053Z,6.27
2019-04-16T11:45:48.060Z,6.47
2019-04-16T11:48:17.105Z,6.33
2019-04-16T11:50:46.088Z,6.63
2019-04-16T11:53:15.022Z,5.67
2019-04-16T11:55:44.102Z,5.73
2019-04-16T11:58:24.301Z,5.87
2019-04-16T12:00:57.894Z,6.40
2019-04-16T12:03:45.836Z,6.20
2019-04-16T12:06:28.239Z,6.20
2019-04-16T12:09:10.662Z,6.70
2019-04-16T12:11:50.211Z,6.23
2019-04-16T12:14:42.425Z,6.00
2019-04-16T12:17:22.976Z,5.97
2019-04-16T12:20:11.784Z,5.63
2019-04-16T12:22:47.215Z,6.90
2019-04-16T12:25:33.902Z,6.53
2019-04-16T12:28:20.531Z,7.27
2019-04-16T12:31:11.479Z,7.27
2019-04-16T12:34:02.225Z,8.67
2019-04-16T12:36:53.100Z,10.87
2019-04-16T12:39:43.889Z,7.30
2019-04-16T12:42:19.513Z,6.30
2019-04-16T12:44:53.355Z,6.80
2019-04-16T12:47:47.407Z,7.13
2019-04-16T12:50:36.996Z,7.03
2019-04-16T12:53:23.462Z,6.43
2019-04-16T12:56:10.088Z,7.10
2019-04-16T12:58:50.390Z,7.00
2019-04-16T13:01:33.342Z,6.80
2019-04-16T13:04:14.735Z,6.87
2019-04-16T13:06:53.883Z,6.93
2019-04-16T13:09:53.794Z,6.17
2019-04-16T13:12:32.509Z,6.70
2019-04-16T13:15:17.310Z,5.80
2019-04-16T13:18:05.841Z,6.60
2019-04-16T13:20:57.087Z,6.23
2019-04-16T13:23:49.227Z,6.50
2019-04-16T13:26:35.735Z,6.20
2019-04-16T13:29:10.461Z,6.87
2019-04-16T13:31:42.105Z,6.57
2019-04-16T13:34:11.088Z,6.43
2019-04-16T13:36:40.081Z,6.20
2019-04-16T13:39:21.098Z,6.93
2019-04-16T13:41:50.441Z,6.40
2019-04-16T13:44:21.105Z,6.10
2019-04-16T13:46:50.166Z,7.87
2019-04-16T13:49:24.508Z,7.93
2019-04-16T13:51:57.294Z,6.53
2019-04-16T13:54:35.386Z,7.87
2019-04-16T13:57:08.800Z,6.13
2019-04-16T13:59:56.804Z,15.47
2019-04-16T14:02:43.693Z,8.33
2019-04-16T14:05:13.324Z,8.33
2019-04-16T14:07:42.418Z,7.67
2019-04-16T14:10:14.174Z,17.57
2019-04-16T14:12:43.301Z,6.13
2019-04-16T14:15:12.674Z,30.97
2019-04-16T14:17:52.389Z,15.73
2019-04-16T14:20:13.909Z,13.80
2019-04-16T14:22:43.090Z,6.23
2019-04-16T14:25:12.232Z,7.67
2019-04-16T14:27:41.254Z,7.33
2019-04-16T14:30:15.919Z,6.60
2019-04-16T14:32:44.933Z,7.50
2019-04-16T14:35:32.008Z,6.43
2019-04-16T14:37:49.858Z,6.43
2019-04-16T14:40:22.957Z,6.30
2019-04-16T14:42:56.281Z,6.97
2019-04-16T14:45:56.761Z,9.50
2019-04-16T14:48:11.721Z,7.73
2019-04-16T14:50:40.707Z,6.47
2019-04-16T14:53:09.701Z,6.70
2019-04-16T14:56:04.033Z,5.97
2019-04-16T14:59:10.013Z,6.60
2019-04-16T15:02:04.430Z,10.07
2019-04-16T15:04:43.231Z,5.97
2019-04-16T15:07:20.913Z,6.20
2019-04-16T15:09:53.947Z,6.93
2019-04-16T15:12:49.109Z,6.27
2019-04-16T15:15:31.259Z,6.60
2019-04-16T15:18:26.811Z,6.80
2019-04-16T15:21:23.148Z,6.83
2019-04-16T15:24:13.914Z,9.37
2019-04-16T15:27:08.215Z,14.23
2019-04-16T15:30:03.514Z,12.80
2019-04-16T15:32:48.044Z,10.20
2019-04-16T15:35:38.835Z,11.33
2019-04-16T15:38:29.567Z,10.93
2019-04-16T15:41:12.072Z,10.53
2019-04-16T15:44:07.957Z,12.47
2019-04-16T15:46:58.692Z,14.57
2019-04-16T15:49:41.771Z,14.63
2019-04-16T15:52:32.163Z,9.43
2019-04-16T15:55:19.830Z,11.30
2019-04-16T15:58:04.654Z,14.90
2019-04-16T16:00:50.370Z,15.33
2019-04-16T16:03:37.680Z,12.60
2019-04-16T16:06:16.883Z,13.13
2019-04-16T16:08:49.087Z,7.20
2019-04-16T16:11:21.378Z,8.40
2019-04-16T16:13:52.257Z,9.87
2019-04-16T16:16:21.196Z,9.50
2019-04-16T16:18:50.235Z,7.90
2019-04-16T16:21:20.924Z,6.53
2019-04-16T16:23:49.883Z,9.40
2019-04-16T16:26:18.909Z,8.70
2019-04-16T16:28:47.929Z,12.83
2019-04-16T16:31:16.920Z,13.60
2019-04-16T16:33:46.038Z,6.83
2019-04-16T16:36:15.054Z,12.63
2019-04-16T16:38:48.243Z,9.67
2019-04-16T16:41:14.692Z,8.60
2019-04-16T16:43:43.959Z,8.53
2019-04-16T16:46:31.992Z,10.03
2019-04-16T16:49:01.133Z,25.60
2019-04-16T16:51:30.102Z,24.70
2019-04-16T16:54:18.138Z,13.20
2019-04-16T16:56:54.849Z,19.63
2019-04-16T16:59:30.892Z,9.90
2019-04-16T17:02:31.141Z,8.43
2019-04-16T17:05:00.487Z,11.17
2019-04-16T17:07:29.472Z,9.47
2019-04-16T17:09:58.475Z,11.80
2019-04-16T17:12:27.486Z,17.03
2019-04-16T17:14:57.421Z,29.70
2019-04-16T17:17:26.526Z,19.63
2019-04-16T17:19:55.711Z,13.50
2019-04-16T17:22:24.788Z,18.13
2019-04-16T17:24:54.542Z,12.90
2019-04-16T17:27:23.810Z,10.53
2019-04-16T17:29:53.244Z,13.57
2019-04-16T17:32:22.228Z,16.30
2019-04-16T17:34:54.131Z,12.17
2019-04-16T17:37:28.038Z,15.60
2019-04-16T17:39:59.372Z,12.43
2019-04-16T17:42:37.804Z,13.47
2019-04-16T17:45:25.944Z,14.73
2019-04-16T17:48:12.564Z,13.07
2019-04-16T17:50:53.096Z,12.23
2019-04-16T17:53:31.107Z,13.47
2019-04-16T17:56:17.902Z,12.63
2019-04-16T17:58:56.112Z,13.33
2019-04-16T18:01:50.795Z,13.13
2019-04-16T18:04:27.828Z,11.13
2019-04-16T18:07:15.843Z,11.30
2019-04-16T18:10:06.949Z,9.13
2019-04-16T18:13:15.808Z,10.43
2019-04-16T18:16:08.570Z,9.30
2019-04-16T18:18:46.924Z,10.70
2019-04-16T18:21:22.960Z,10.17
2019-04-16T18:24:03.653Z,8.47
2019-04-16T18:26:55.153Z,12.90
2019-04-16T18:29:39.610Z,15.30
2019-04-16T18:32:31.112Z,11.57
2019-04-16T18:35:16.112Z,10.10
2019-04-16T18:38:03.694Z,7.83
2019-04-16T18:40:46.336Z,8.03
2019-04-16T18:43:29.542Z,7.93
2019-04-16T18:46:30.916Z,9.60
2019-04-16T18:49:05.834Z,8.93
2019-04-16T18:51:45.595Z,9.37
2019-04-16T18:54:15.706Z,11.37
2019-04-16T18:56:46.467Z,8.80
2019-04-16T18:59:16.257Z,8.43
2019-04-16T19:01:46.768Z,8.20
2019-04-16T19:04:15.895Z,9.17
2019-04-16T19:06:46.741Z,10.80
2019-04-16T19:09:15.922Z,11.73
2019-04-16T19:11:45.630Z,21.53
2019-04-16T19:14:14.962Z,14.47
2019-04-16T19:16:46.765Z,10.33
2019-04-16T19:19:16.402Z,10.47
2019-04-16T19:21:51.301Z,10.73
2019-04-16T19:24:18.306Z,11.47
2019-04-16T19:26:47.761Z,13.87
2019-04-16T19:29:16.755Z,13.00
2019-04-16T19:31:45.768Z,11.50
2019-04-16T19:34:14.785Z,8.80
2019-04-16T19:36:43.841Z,8.73
2019-04-16T19:39:15.223Z,10.10
2019-04-16T19:41:49.035Z,11.17
2019-04-16T19:44:18.502Z,14.03
2019-04-16T19:46:52.655Z,9.00
2019-04-16T19:49:18.922Z,8.27
2019-04-16T19:51:48.091Z,8.10
2019-04-16T19:54:17.193Z,7.53
2019-04-16T19:56:51.016Z,8.57
2019-04-16T19:59:17.295Z,8.20
2019-04-16T20:01:46.775Z,8.97
2019-04-16T20:04:15.981Z,8.80
2019-04-16T20:06:45.209Z,7.60
2019-04-16T20:09:14.649Z,9.30
2019-04-16T20:11:43.938Z,8.40
2019-04-16T20:14:12.980Z,10.13
2019-04-16T20:16:43.971Z,11.57
2019-04-16T20:19:14.246Z,13.90
2019-04-16T20:21:43.400Z,27.53
2019-04-16T20:24:12.434Z,14.57
2019-04-16T20:26:41.567Z,11.57
2019-04-16T20:29:10.631Z,12.97
2019-04-16T20:31:39.815Z,9.90
2019-04-16T20:34:12.564Z,12.00
2019-04-16T20:36:43.922Z,10.13
2019-04-16T20:39:12.941Z,9.70
2019-04-16T20:41:41.988Z,9.10
2019-04-16T20:44:11.061Z,9.87
2019-04-16T20:46:40.113Z,8.57
2019-04-16T20:49:10.704Z,9.90
2019-04-16T20:51:40.445Z,9.07
2019-04-16T20:54:12.882Z,9.47
2019-04-16T20:56:44.020Z,9.50
2019-04-16T20:59:13.129Z,8.87
2019-04-16T21:01:42.200Z,8.67
2019-04-16T21:04:11.228Z,8.67
2019-04-16T21:06:41.840Z,8.80
2019-04-16T21:09:10.864Z,9.50
2019-04-16T21:11:41.033Z,14.23
2019-04-16T21:14:10.566Z,12.57
2019-04-16T21:16:39.545Z,11.97
2019-04-16T21:19:22.496Z,15.87
2019-04-16T21:21:40.394Z,15.97
2019-04-16T21:24:13.210Z,9.00
2019-04-16T21:26:39.989Z,10.40
2019-04-16T21:29:16.023Z,10.03
2019-04-16T21:31:48.207Z,8.90
2019-04-16T21:34:36.292Z,9.70
2019-04-16T21:37:25.875Z,12.63
2019-04-16T21:39:57.279Z,11.77
2019-04-16T21:42:26.435Z,10.67
2019-04-16T21:44:55.465Z,13.17
2019-04-16T21:47:26.511Z,10.50
2019-04-16T21:49:55.103Z,15.07
2019-04-16T21:52:24.066Z,15.13
2019-04-16T21:54:53.076Z,9.80
2019-04-16T21:57:22.060Z,10.67
2019-04-16T21:59:56.654Z,9.47
2019-04-16T22:02:24.051Z,11.03
2019-04-16T22:04:53.161Z,12.70
2019-04-16T22:07:25.562Z,11.00
2019-04-16T22:09:54.662Z,9.33
2019-04-16T22:12:23.610Z,12.87
2019-04-16T22:14:54.226Z,11.33
2019-04-16T22:17:23.295Z,10.20
2019-04-16T22:23:19.077Z,9.67
2019-04-16T22:25:48.204Z,11.63
2019-04-16T22:28:17.182Z,11.07
2019-04-16T22:30:51.212Z,10.60
2019-04-16T22:33:18.336Z,12.47
2019-04-16T22:35:47.297Z,10.50
2019-04-16T22:38:16.299Z,12.73
2019-04-16T22:41:02.596Z,10.50
2019-04-16T22:43:56.480Z,13.33
2019-04-16T22:46:42.897Z,11.23
2019-04-16T22:49:12.027Z,14.07
2019-04-16T22:51:43.216Z,11.73
2019-04-16T22:54:11.819Z,12.50
2019-04-16T22:56:49.176Z,10.93
2019-04-16T22:59:18.116Z,9.20
2019-04-16T23:01:47.422Z,11.27
2019-04-16T23:04:16.430Z,11.37
2019-04-16T23:06:48.573Z,10.37
2019-04-16T23:09:18.019Z,10.63
2019-04-16T23:11:47.005Z,11.80
2019-04-16T23:14:15.984Z,11.07
2019-04-16T23:19:35.000Z,9.93
2019-04-16T23:22:04.250Z,19.93
2019-04-16T23:24:34.150Z,32.70
2019-04-16T23:27:06.056Z,23.60
2019-04-16T23:29:33.884Z,16.37
2019-04-16T23:32:02.859Z,15.57
2019-04-16T23:34:34.882Z,16.83
2019-04-16T23:37:03.073Z,18.43
2019-04-16T23:39:33.512Z,15.30
2019-04-16T23:42:02.727Z,13.10
2019-04-16T23:45:07.176Z,15.67
2019-04-16T23:47:53.972Z,9.90
2019-04-16T23:50:45.680Z,11.40
2019-04-16T23:53:23.209Z,12.40
2019-04-16T23:56:09.763Z,11.30
2019-04-16T23:58:53.771Z,11.33
